TimeEEST,TemperatureF,Dew PointF,Humidity,Sea Level PressureIn,VisibilityMPH,Wind Direction,Wind SpeedMPH,Gust SpeedMPH,PrecipitationIn,Events,Conditions,WindDirDegrees,DateUTC
12:20 AM,64.4,60.8,88,29.92,6.2,SE,3.5,-,N/A,,Scattered Clouds,130,2012-10-07 21:20:00
12:50 AM,62.6,60.8,94,29.92,6.2,SE,3.5,-,N/A,,Partly Cloudy,140,2012-10-07 21:50:00
1:20 AM,62.6,60.8,94,29.92,-9999.0,Calm,Calm,-,N/A,,Clear,0,2012-10-07 22:20:00
1:50 AM,62.6,59.0,88,29.92,-9999.0,SE,3.5,-,N/A,,Clear,130,2012-10-07 22:50:00
2:20 AM,60.8,57.2,88,29.89,-9999.0,SE,2.3,-,N/A,,Clear,130,2012-10-07 23:20:00
2:50 AM,60.8,59.0,94,29.89,-9999.0,SSE,3.5,-,N/A,,Clear,160,2012-10-07 23:50:00
3:20 AM,59.0,57.2,94,29.89,-9999.0,Variable,2.3,-,N/A,,Clear,0,2012-10-08 00:20:00
3:50 AM,59.0,55.4,88,29.89,-9999.0,SE,3.5,-,N/A,,Clear,130,2012-10-08 00:50:00
4:20 AM,59.0,55.4,88,29.89,-9999.0,East,3.5,-,N/A,,Clear,100,2012-10-08 01:20:00
4:50 AM,59.0,55.4,88,29.89,-9999.0,ESE,3.5,-,N/A,,Clear,120,2012-10-08 01:50:00
5:20 AM,59.0,55.4,88,29.89,-9999.0,ESE,3.5,-,N/A,,Clear,110,2012-10-08 02:20:00
5:50 AM,57.2,55.4,94,29.89,-9999.0,ESE,3.5,-,N/A,,Clear,120,2012-10-08 02:50:00
6:20 AM,55.4,51.8,88,29.89,-9999.0,Variable,1.2,-,N/A,,Clear,0,2012-10-08 03:20:00
6:50 AM,57.2,53.6,88,29.89,-9999.0,Variable,2.3,-,N/A,,Clear,0,2012-10-08 03:50:00
7:20 AM,59.0,55.4,88,29.89,-9999.0,SE,3.5,-,N/A,,Clear,140,2012-10-08 04:20:00
7:50 AM,59.0,57.2,94,29.89,-9999.0,ENE,3.5,-,N/A,,Clear,60,2012-10-08 04:50:00
8:20 AM,60.8,57.2,88,29.89,3.7,ESE,4.6,-,N/A,,Unknown,120,2012-10-08 05:20:00
8:50 AM,62.6,55.4,77,29.89,-9999.0,ESE,3.5,-,N/A,,Clear,120,2012-10-08 05:50:00
9:20 AM,66.2,59.0,78,29.89,6.2,Variable,2.3,-,N/A,,Scattered Clouds,0,2012-10-08 06:20:00
9:50 AM,71.6,60.8,69,29.89,6.2,Variable,2.3,-,N/A,,Mostly Cloudy,0,2012-10-08 06:50:00
10:20 AM,73.4,60.8,65,29.89,6.2,Variable,3.5,-,N/A,,Mostly Cloudy,0,2012-10-08 07:20:00
10:50 AM,75.2,60.8,61,29.89,6.2,Variable,2.3,-,N/A,,Mostly Cloudy,0,2012-10-08 07:50:00
11:20 AM,77.0,57.2,50,29.89,6.2,Variable,2.3,-,N/A,,Mostly Cloudy,0,2012-10-08 08:20:00
11:50 AM,78.8,55.4,44,29.89,6.2,Variable,4.6,-,N/A,,Mostly Cloudy,0,2012-10-08 08:50:00
12:20 PM,78.8,53.6,42,29.89,6.2,WNW,5.8,-,N/A,,Mostly Cloudy,290,2012-10-08 09:20:00
12:50 PM,80.6,53.6,39,29.86,6.2,NW,4.6,-,N/A,,Mostly Cloudy,310,2012-10-08 09:50:00
1:20 PM,82.4,51.8,35,29.86,6.2,WNW,11.5,-,N/A,,Mostly Cloudy,290,2012-10-08 10:20:00
1:50 PM,80.6,57.2,45,29.86,6.2,WNW,12.7,-,N/A,,Mostly Cloudy,290,2012-10-08 10:50:00
2:20 PM,80.6,59.0,48,29.83,6.2,WNW,12.7,-,N/A,,Mostly Cloudy,300,2012-10-08 11:20:00
2:50 PM,80.6,60.8,51,29.83,6.2,West,12.7,-,N/A,,Mostly Cloudy,280,2012-10-08 11:50:00
3:20 PM,80.6,60.8,51,29.83,6.2,West,11.5,-,N/A,,Mostly Cloudy,260,2012-10-08 12:20:00
3:50 PM,82.4,60.8,48,29.83,6.2,West,10.4,-,N/A,,Mostly Cloudy,270,2012-10-08 12:50:00
4:20 PM,80.6,59.0,48,29.83,6.2,West,12.7,-,N/A,,Mostly Cloudy,280,2012-10-08 13:20:00
4:50 PM,80.6,60.8,51,29.83,6.2,West,12.7,-,N/A,,Mostly Cloudy,270,2012-10-08 13:50:00
5:20 PM,78.8,59.0,51,29.83,6.2,West,12.7,-,N/A,,Scattered Clouds,280,2012-10-08 14:20:00
5:50 PM,77.0,60.8,57,29.83,6.2,West,12.7,-,N/A,,Mostly Cloudy,270,2012-10-08 14:50:00
6:20 PM,75.2,62.6,65,29.83,6.2,West,9.2,-,N/A,,Mostly Cloudy,270,2012-10-08 15:20:00
6:50 PM,75.2,60.8,61,29.83,6.2,West,6.9,-,N/A,,Mostly Cloudy,270,2012-10-08 15:50:00
7:20 PM,75.2,60.8,61,29.83,6.2,WSW,5.8,-,N/A,,Mostly Cloudy,250,2012-10-08 16:20:00
7:50 PM,73.4,60.8,65,29.83,6.2,West,5.8,-,N/A,,Scattered Clouds,260,2012-10-08 16:50:00
8:20 PM,73.4,60.8,65,29.86,6.2,SSW,4.6,-,N/A,,Mostly Cloudy,200,2012-10-08 17:20:00
8:50 PM,73.4,60.8,65,29.86,6.2,Variable,2.3,-,N/A,,Mostly Cloudy,0,2012-10-08 17:50:00
9:20 PM,68.0,60.8,78,29.86,6.2,East,4.6,-,N/A,,Mostly Cloudy,100,2012-10-08 18:20:00
9:50 PM,69.8,62.6,78,29.86,6.2,SE,3.5,-,N/A,,Mostly Cloudy,140,2012-10-08 18:50:00
10:20 PM,68.0,62.6,83,29.86,6.2,SSE,4.6,-,N/A,,Mostly Cloudy,160,2012-10-08 19:20:00
10:50 PM,68.0,62.6,83,29.86,6.2,Variable,2.3,-,N/A,,Mostly Cloudy,0,2012-10-08 19:50:00
11:20 PM,66.2,60.8,83,29.86,6.2,ENE,3.5,-,N/A,,Mostly Cloudy,60,2012-10-08 20:20:00
11:50 PM,66.2,60.8,83,29.86,6.2,SE,3.5,-,N/A,,Mostly Cloudy,140,2012-10-08 20:50:00